sensor_id;sensor_type;location;lat;lon;timestamp;temperature;humidity
47813;DHT22;34221;45.296;9.516;2022-12-11T00:00:09;3.10;99.90
47813;DHT22;34221;45.296;9.516;2022-12-11T00:00:25;3.00;99.90
47813;DHT22;34221;45.296;9.516;2022-12-11T00:00:40;3.00;99.90
47813;DHT22;34221;45.296;9.516;2022-12-11T00:00:55;3.00;99.90
47813;DHT22;34221;45.296;9.516;2022-12-11T00:01:12;3.00;99.90
47813;DHT22;34221;45.296;9.516;2022-12-11T00:01:29;2.90;99.90
47813;DHT22;34221;45.296;9.516;2022-12-11T00:01:44;3.00;99.90
47813;DHT22;34221;45.296;9.516;2022-12-11T00:01:59;3.00;99.90
47813;DHT22;34221;45.296;9.516;2022-12-11T00:02:14;3.00;99.90
47813;DHT22;34221;45.296;9.516;2022-12-11T00:02:29;3.00;99.90
47813;DHT22;34221;45.296;9.516;2022-12-11T00:02:44;3.00;99.90
47813;DHT22;34221;45.296;9.516;2022-12-11T00:02:59;3.00;99.90
47813;DHT22;34221;45.296;9.516;2022-12-11T00:03:17;2.90;99.90
47813;DHT22;34221;45.296;9.516;2022-12-11T00:03:32;2.90;99.90
47813;DHT22;34221;45.296;9.516;2022-12-11T00:03:47;2.90;99.90
47813;DHT22;34221;45.296;9.516;2022-12-11T00:04:02;2.90;99.90
47813;DHT22;34221;45.296;9.516;2022-12-11T00:04:17;2.90;99.90
47813;DHT22;34221;45.296;9.516;2022-12-11T00:04:32;2.90;99.90
47813;DHT22;34221;45.296;9.516;2022-12-11T00:04:47;2.90;99.90
47813;DHT22;34221;45.296;9.516;2022-12-11T00:05:02;2.90;99.90
47813;DHT22;34221;45.296;9.516;2022-12-11T00:05:17;3.00;99.90
47813;DHT22;34221;45.296;9.516;2022-12-11T00:05:32;2.90;99.90
47813;DHT22;34221;45.296;9.516;2022-12-11T00:05:48;2.90;99.90
47813;DHT22;34221;45.296;9.516;2022-12-11T00:06:08;3.00;99.90
47813;DHT22;34221;45.296;9.516;2022-12-11T00:06:25;3.00;99.90
47813;DHT22;34221;45.296;9.516;2022-12-11T00:06:40;3.00;99.90
47813;DHT22;34221;45.296;9.516;2022-12-11T00:06:56;3.00;99.90
47813;DHT22;34221;45.296;9.516;2022-12-11T00:07:11;3.00;99.90
47813;DHT22;34221;45.296;9.516;2022-12-11T00:07:26;3.00;99.90
47813;DHT22;34221;45.296;9.516;2022-12-11T00:07:40;3.00;99.90
47813;DHT22;34221;45.296;9.516;2022-12-11T00:07:55;2.90;99.90
47813;DHT22;34221;45.296;9.516;2022-12-11T00:08:12;2.90;99.90
47813;DHT22;34221;45.296;9.516;2022-12-11T00:08:27;2.90;99.90
47813;DHT22;34221;45.296;9.516;2022-12-11T00:08:42;2.90;99.90
47813;DHT22;34221;45.296;9.516;2022-12-11T00:08:58;2.90;99.90
47813;DHT22;34221;45.296;9.516;2022-12-11T00:09:13;2.90;99.90
47813;DHT22;34221;45.296;9.516;2022-12-11T00:09:28;2.90;99.90
47813;DHT22;34221;45.296;9.516;2022-12-11T00:09:43;2.90;99.90
47813;DHT22;34221;45.296;9.516;2022-12-11T00:09:58;2.80;99.90
47813;DHT22;34221;45.296;9.516;2022-12-11T00:10:13;2.80;99.90
47813;DHT22;34221;45.296;9.516;2022-12-11T00:10:27;2.80;99.90
47813;DHT22;34221;45.296;9.516;2022-12-11T00:10:48;2.80;99.90
47813;DHT22;34221;45.296;9.516;2022-12-11T00:11:06;2.80;99.90
47813;DHT22;34221;45.296;9.516;2022-12-11T00:11:22;2.80;99.90
47813;DHT22;34221;45.296;9.516;2022-12-11T00:11:37;2.80;99.90
47813;DHT22;34221;45.296;9.516;2022-12-11T00:11:52;2.80;99.90
47813;DHT22;34221;45.296;9.516;2022-12-11T00:12:07;2.80;99.90
47813;DHT22;34221;45.296;9.516;2022-12-11T00:12:22;2.80;99.90
47813;DHT22;34221;45.296;9.516;2022-12-11T00:12:37;2.80;99.90
47813;DHT22;34221;45.296;9.516;2022-12-11T00:12:52;2.80;99.90
47813;DHT22;34221;45.296;9.516;2022-12-11T00:13:07;2.80;99.90
47813;DHT22;34221;45.296;9.516;2022-12-11T00:13:22;2.80;99.90
47813;DHT22;34221;45.296;9.516;2022-12-11T00:13:37;2.80;99.90
47813;DHT22;34221;45.296;9.516;2022-12-11T00:13:52;2.90;99.90
47813;DHT22;34221;45.296;9.516;2022-12-11T00:14:07;2.80;99.90
47813;DHT22;34221;45.296;9.516;2022-12-11T00:14:22;2.80;99.90
47813;DHT22;34221;45.296;9.516;2022-12-11T00:14:37;2.80;99.90
47813;DHT22;34221;45.296;9.516;2022-12-11T00:14:52;2.80;99.90
47813;DHT22;34221;45.296;9.516;2022-12-11T00:15:07;2.80;99.90
47813;DHT22;34221;45.296;9.516;2022-12-11T00:15:23;2.80;99.90
47813;DHT22;34221;45.296;9.516;2022-12-11T00:15:39;2.80;99.90
47813;DHT22;34221;45.296;9.516;2022-12-11T00:15:54;2.80;99.90
47813;DHT22;34221;45.296;9.516;2022-12-11T00:16:12;2.90;99.90
47813;DHT22;34221;45.296;9.516;2022-12-11T00:16:27;2.80;99.90
47813;DHT22;34221;45.296;9.516;2022-12-11T00:16:42;2.80;99.90
47813;DHT22;34221;45.296;9.516;2022-12-11T00:16:57;2.80;99.90
47813;DHT22;34221;45.296;9.516;2022-12-11T00:17:12;2.80;99.90
47813;DHT22;34221;45.296;9.516;2022-12-11T00:17:27;2.80;99.90
47813;DHT22;34221;45.296;9.516;2022-12-11T00:17:42;2.80;99.90
47813;DHT22;34221;45.296;9.516;2022-12-11T00:17:57;2.80;99.90
47813;DHT22;34221;45.296;9.516;2022-12-11T00:18:12;2.80;99.90
47813;DHT22;34221;45.296;9.516;2022-12-11T00:18:28;2.80;99.90
47813;DHT22;34221;45.296;9.516;2022-12-11T00:18:43;2.80;99.90
47813;DHT22;34221;45.296;9.516;2022-12-11T00:18:58;2.90;99.90
47813;DHT22;34221;45.296;9.516;2022-12-11T00:19:13;2.90;99.90
47813;DHT22;34221;45.296;9.516;2022-12-11T00:19:28;2.90;99.90
47813;DHT22;34221;45.296;9.516;2022-12-11T00:19:43;2.90;99.90
47813;DHT22;34221;45.296;9.516;2022-12-11T00:19:58;2.90;99.90
47813;DHT22;34221;45.296;9.516;2022-12-11T00:20:13;2.80;99.90
47813;DHT22;34221;45.296;9.516;2022-12-11T00:20:27;2.70;99.90
47813;DHT22;34221;45.296;9.516;2022-12-11T00:20:42;2.70;99.90
47813;DHT22;34221;45.296;9.516;2022-12-11T00:21:05;2.80;99.90
47813;DHT22;34221;45.296;9.516;2022-12-11T00:21:22;2.70;99.90
47813;DHT22;34221;45.296;9.516;2022-12-11T00:21:37;2.70;99.90
47813;DHT22;34221;45.296;9.516;2022-12-11T00:21:51;2.70;99.90
47813;DHT22;34221;45.296;9.516;2022-12-11T00:22:06;2.70;99.90
47813;DHT22;34221;45.296;9.516;2022-12-11T00:22:21;2.70;99.90
47813;DHT22;34221;45.296;9.516;2022-12-11T00:22:36;2.80;99.90
47813;DHT22;34221;45.296;9.516;2022-12-11T00:22:51;2.80;99.90
47813;DHT22;34221;45.296;9.516;2022-12-11T00:23:06;2.80;99.90
47813;DHT22;34221;45.296;9.516;2022-12-11T00:23:21;2.80;99.90
47813;DHT22;34221;45.296;9.516;2022-12-11T00:23:36;2.80;99.90
47813;DHT22;34221;45.296;9.516;2022-12-11T00:23:51;2.80;99.90
47813;DHT22;34221;45.296;9.516;2022-12-11T00:24:06;2.80;99.90
47813;DHT22;34221;45.296;9.516;2022-12-11T00:24:21;2.80;99.90
47813;DHT22;34221;45.296;9.516;2022-12-11T00:24:36;2.80;99.90
47813;DHT22;34221;45.296;9.516;2022-12-11T00:24:51;2.80;99.90
47813;DHT22;34221;45.296;9.516;2022-12-11T00:25:07;2.80;99.90
47813;DHT22;34221;45.296;9.516;2022-12-11T00:25:22;2.80;99.90
47813;DHT22;34221;45.296;9.516;2022-12-11T00:25:44;2.80;99.90
47813;DHT22;34221;45.296;9.516;2022-12-11T00:26:03;2.70;99.90
47813;DHT22;34221;45.296;9.516;2022-12-11T00:26:20;2.80;99.90
47813;DHT22;34221;45.296;9.516;2022-12-11T00:26:36;2.80;99.90
47813;DHT22;34221;45.296;9.516;2022-12-11T00:26:52;2.70;99.90
47813;DHT22;34221;45.296;9.516;2022-12-11T00:27:07;2.70;99.90
47813;DHT22;34221;45.296;9.516;2022-12-11T00:27:22;2.70;99.90
47813;DHT22;34221;45.296;9.516;2022-12-11T00:27:37;2.70;99.90
47813;DHT22;34221;45.296;9.516;2022-12-11T00:27:52;2.70;99.90
47813;DHT22;34221;45.296;9.516;2022-12-11T00:28:07;2.70;99.90
47813;DHT22;34221;45.296;9.516;2022-12-11T00:28:22;2.80;99.90
47813;DHT22;34221;45.296;9.516;2022-12-11T00:28:37;2.80;99.90
47813;DHT22;34221;45.296;9.516;2022-12-11T00:28:54;2.70;99.90
47813;DHT22;34221;45.296;9.516;2022-12-11T00:29:10;2.60;99.90
47813;DHT22;34221;45.296;9.516;2022-12-11T00:29:28;2.70;99.90
47813;DHT22;34221;45.296;9.516;2022-12-11T00:29:43;2.70;99.90
47813;DHT22;34221;45.296;9.516;2022-12-11T00:29:58;2.70;99.90
47813;DHT22;34221;45.296;9.516;2022-12-11T00:30:13;2.60;99.90
47813;DHT22;34221;45.296;9.516;2022-12-11T00:30:28;2.60;99.90
47813;DHT22;34221;45.296;9.516;2022-12-11T00:30:44;2.60;99.90
47813;DHT22;34221;45.296;9.516;2022-12-11T00:31:06;2.60;99.90
47813;DHT22;34221;45.296;9.516;2022-12-11T00:31:23;2.60;99.90
47813;DHT22;34221;45.296;9.516;2022-12-11T00:31:38;2.60;99.90
47813;DHT22;34221;45.296;9.516;2022-12-11T00:31:53;2.50;99.90
47813;DHT22;34221;45.296;9.516;2022-12-11T00:32:08;2.50;99.90
47813;DHT22;34221;45.296;9.516;2022-12-11T00:32:23;2.60;99.90
47813;DHT22;34221;45.296;9.516;2022-12-11T00:32:37;2.50;99.90
47813;DHT22;34221;45.296;9.516;2022-12-11T00:32:52;2.50;99.90
47813;DHT22;34221;45.296;9.516;2022-12-11T00:33:08;2.60;99.90
47813;DHT22;34221;45.296;9.516;2022-12-11T00:33:26;2.50;99.90
47813;DHT22;34221;45.296;9.516;2022-12-11T00:33:42;2.60;99.90
47813;DHT22;34221;45.296;9.516;2022-12-11T00:33:59;2.60;99.90
47813;DHT22;34221;45.296;9.516;2022-12-11T00:34:14;2.60;99.90
47813;DHT22;34221;45.296;9.516;2022-12-11T00:34:29;2.60;99.90
47813;DHT22;34221;45.296;9.516;2022-12-11T00:34:44;2.60;99.90
47813;DHT22;34221;45.296;9.516;2022-12-11T00:34:59;2.60;99.90
47813;DHT22;34221;45.296;9.516;2022-12-11T00:35:14;2.60;99.90
47813;DHT22;34221;45.296;9.516;2022-12-11T00:35:29;2.70;99.90
47813;DHT22;34221;45.296;9.516;2022-12-11T00:35:45;2.70;99.90
47813;DHT22;34221;45.296;9.516;2022-12-11T00:36:01;2.60;99.90
47813;DHT22;34221;45.296;9.516;2022-12-11T00:36:22;2.60;99.90
47813;DHT22;34221;45.296;9.516;2022-12-11T00:36:38;2.60;99.90
47813;DHT22;34221;45.296;9.516;2022-12-11T00:36:53;2.60;99.90
47813;DHT22;34221;45.296;9.516;2022-12-11T00:37:08;2.60;99.90
47813;DHT22;34221;45.296;9.516;2022-12-11T00:37:23;2.50;99.90
47813;DHT22;34221;45.296;9.516;2022-12-11T00:37:38;2.60;99.90
47813;DHT22;34221;45.296;9.516;2022-12-11T00:37:53;2.60;99.90
47813;DHT22;34221;45.296;9.516;2022-12-11T00:38:08;2.60;99.90
47813;DHT22;34221;45.296;9.516;2022-12-11T00:38:28;2.60;99.90
47813;DHT22;34221;45.296;9.516;2022-12-11T00:38:43;2.60;99.90
47813;DHT22;34221;45.296;9.516;2022-12-11T00:39:00;2.60;99.90
47813;DHT22;34221;45.296;9.516;2022-12-11T00:39:18;2.50;99.90
47813;DHT22;34221;45.296;9.516;2022-12-11T00:39:33;2.50;99.90
47813;DHT22;34221;45.296;9.516;2022-12-11T00:39:48;2.50;99.90
47813;DHT22;34221;45.296;9.516;2022-12-11T00:40:04;2.50;99.90
47813;DHT22;34221;45.296;9.516;2022-12-11T00:40:19;2.50;99.90
47813;DHT22;34221;45.296;9.516;2022-12-11T00:40:35;2.50;99.90
47813;DHT22;34221;45.296;9.516;2022-12-11T00:40:50;2.50;99.90
47813;DHT22;34221;45.296;9.516;2022-12-11T00:41:05;2.40;99.90
47813;DHT22;34221;45.296;9.516;2022-12-11T00:41:21;2.50;99.90
47813;DHT22;34221;45.296;9.516;2022-12-11T00:41:36;2.50;99.90
47813;DHT22;34221;45.296;9.516;2022-12-11T00:41:51;2.50;99.90
47813;DHT22;34221;45.296;9.516;2022-12-11T00:42:07;2.50;99.90
47813;DHT22;34221;45.296;9.516;2022-12-11T00:42:22;2.50;99.90
47813;DHT22;34221;45.296;9.516;2022-12-11T00:42:37;2.50;99.90
47813;DHT22;34221;45.296;9.516;2022-12-11T00:42:51;2.50;99.90
47813;DHT22;34221;45.296;9.516;2022-12-11T00:43:06;2.50;99.90
47813;DHT22;34221;45.296;9.516;2022-12-11T00:43:21;2.50;99.90
47813;DHT22;34221;45.296;9.516;2022-12-11T00:43:37;2.50;99.90
47813;DHT22;34221;45.296;9.516;2022-12-11T00:43:52;2.60;99.90
47813;DHT22;34221;45.296;9.516;2022-12-11T00:44:08;2.60;99.90
47813;DHT22;34221;45.296;9.516;2022-12-11T00:44:23;2.60;99.90
47813;DHT22;34221;45.296;9.516;2022-12-11T00:44:38;2.60;99.90
47813;DHT22;34221;45.296;9.516;2022-12-11T00:44:53;2.60;99.90
47813;DHT22;34221;45.296;9.516;2022-12-11T00:45:10;2.60;99.90
47813;DHT22;34221;45.296;9.516;2022-12-11T00:45:25;2.60;99.90
47813;DHT22;34221;45.296;9.516;2022-12-11T00:45:41;2.60;99.90
47813;DHT22;34221;45.296;9.516;2022-12-11T00:45:58;2.60;99.90
47813;DHT22;34221;45.296;9.516;2022-12-11T00:46:13;2.60;99.90
47813;DHT22;34221;45.296;9.516;2022-12-11T00:46:28;2.60;99.90
47813;DHT22;34221;45.296;9.516;2022-12-11T00:46:43;2.60;99.90
47813;DHT22;34221;45.296;9.516;2022-12-11T00:46:57;2.60;99.90
47813;DHT22;34221;45.296;9.516;2022-12-11T00:47:12;2.60;99.90
47813;DHT22;34221;45.296;9.516;2022-12-11T00:47:27;2.70;99.90
47813;DHT22;34221;45.296;9.516;2022-12-11T00:47:42;2.70;99.90
47813;DHT22;34221;45.296;9.516;2022-12-11T00:47:57;2.60;99.90
47813;DHT22;34221;45.296;9.516;2022-12-11T00:48:12;2.50;99.90
47813;DHT22;34221;45.296;9.516;2022-12-11T00:48:28;2.50;99.90
47813;DHT22;34221;45.296;9.516;2022-12-11T00:48:43;2.50;99.90
47813;DHT22;34221;45.296;9.516;2022-12-11T00:48:58;2.50;99.90
47813;DHT22;34221;45.296;9.516;2022-12-11T00:49:12;2.40;99.90
47813;DHT22;34221;45.296;9.516;2022-12-11T00:49:27;2.50;99.90
47813;DHT22;34221;45.296;9.516;2022-12-11T00:49:42;2.50;99.90
47813;DHT22;34221;45.296;9.516;2022-12-11T00:49:57;2.40;99.90
47813;DHT22;34221;45.296;9.516;2022-12-11T00:50:12;2.40;99.90
47813;DHT22;34221;45.296;9.516;2022-12-11T00:50:27;2.40;99.90
47813;DHT22;34221;45.296;9.516;2022-12-11T00:50:42;2.40;99.90
47813;DHT22;34221;45.296;9.516;2022-12-11T00:50:57;2.50;99.90
47813;DHT22;34221;45.296;9.516;2022-12-11T00:51:12;2.50;99.90
47813;DHT22;34221;45.296;9.516;2022-12-11T00:51:27;2.50;99.90
47813;DHT22;34221;45.296;9.516;2022-12-11T00:51:43;2.50;99.90
47813;DHT22;34221;45.296;9.516;2022-12-11T00:51:58;2.50;99.90
47813;DHT22;34221;45.296;9.516;2022-12-11T00:52:13;2.50;99.90
47813;DHT22;34221;45.296;9.516;2022-12-11T00:52:28;2.50;99.90
47813;DHT22;34221;45.296;9.516;2022-12-11T00:52:43;2.50;99.90
47813;DHT22;34221;45.296;9.516;2022-12-11T00:52:58;2.40;99.90
47813;DHT22;34221;45.296;9.516;2022-12-11T00:53:14;2.50;99.90
47813;DHT22;34221;45.296;9.516;2022-12-11T00:53:29;2.40;99.90
47813;DHT22;34221;45.296;9.516;2022-12-11T00:53:44;2.40;99.90
47813;DHT22;34221;45.296;9.516;2022-12-11T00:53:59;2.40;99.90
47813;DHT22;34221;45.296;9.516;2022-12-11T00:54:14;2.40;99.90
47813;DHT22;34221;45.296;9.516;2022-12-11T00:54:29;2.40;99.90
47813;DHT22;34221;45.296;9.516;2022-12-11T00:54:44;2.40;99.90
47813;DHT22;34221;45.296;9.516;2022-12-11T00:54:59;2.30;99.90
47813;DHT22;34221;45.296;9.516;2022-12-11T00:55:14;2.30;99.90
47813;DHT22;34221;45.296;9.516;2022-12-11T00:55:29;2.30;99.90
47813;DHT22;34221;45.296;9.516;2022-12-11T00:55:44;2.40;99.90
47813;DHT22;34221;45.296;9.516;2022-12-11T00:55:59;2.40;99.90
47813;DHT22;34221;45.296;9.516;2022-12-11T00:56:16;2.40;99.90
47813;DHT22;34221;45.296;9.516;2022-12-11T00:56:33;2.50;99.90
47813;DHT22;34221;45.296;9.516;2022-12-11T00:56:48;2.40;99.90
47813;DHT22;34221;45.296;9.516;2022-12-11T00:57:04;2.40;99.90
47813;DHT22;34221;45.296;9.516;2022-12-11T00:57:19;2.40;99.90
47813;DHT22;34221;45.296;9.516;2022-12-11T00:57:34;2.50;99.90
47813;DHT22;34221;45.296;9.516;2022-12-11T00:57:50;2.50;99.90
47813;DHT22;34221;45.296;9.516;2022-12-11T00:58:06;2.50;99.90
47813;DHT22;34221;45.296;9.516;2022-12-11T00:58:21;2.50;99.90
47813;DHT22;34221;45.296;9.516;2022-12-11T00:58:36;2.60;99.90
47813;DHT22;34221;45.296;9.516;2022-12-11T00:58:51;2.60;99.90
47813;DHT22;34221;45.296;9.516;2022-12-11T00:59:06;2.60;99.90
47813;DHT22;34221;45.296;9.516;2022-12-11T00:59:21;2.60;99.90
47813;DHT22;34221;45.296;9.516;2022-12-11T00:59:36;2.60;99.90
47813;DHT22;34221;45.296;9.516;2022-12-11T00:59:51;2.70;99.90
47813;DHT22;34221;45.296;9.516;2022-12-11T01:00:06;2.60;99.90
47813;DHT22;34221;45.296;9.516;2022-12-11T01:00:22;2.60;99.90
47813;DHT22;34221;45.296;9.516;2022-12-11T01:00:37;2.60;99.90
47813;DHT22;34221;45.296;9.516;2022-12-11T01:00:53;2.60;99.90
47813;DHT22;34221;45.296;9.516;2022-12-11T01:01:09;2.60;99.90
47813;DHT22;34221;45.296;9.516;2022-12-11T01:01:25;2.60;99.90
47813;DHT22;34221;45.296;9.516;2022-12-11T01:01:40;2.60;99.90
47813;DHT22;34221;45.296;9.516;2022-12-11T01:01:55;2.60;99.90
47813;DHT22;34221;45.296;9.516;2022-12-11T01:02:10;2.60;99.90
47813;DHT22;34221;45.296;9.516;2022-12-11T01:02:25;2.60;99.90
47813;DHT22;34221;45.296;9.516;2022-12-11T01:02:40;2.60;99.90
47813;DHT22;34221;45.296;9.516;2022-12-11T01:02:55;2.70;99.90
47813;DHT22;34221;45.296;9.516;2022-12-11T01:03:12;2.60;99.90
47813;DHT22;34221;45.296;9.516;2022-12-11T01:03:27;2.70;99.90
47813;DHT22;34221;45.296;9.516;2022-12-11T01:03:42;2.60;99.90
47813;DHT22;34221;45.296;9.516;2022-12-11T01:03:58;2.60;99.90
47813;DHT22;34221;45.296;9.516;2022-12-11T01:04:13;2.60;99.90
47813;DHT22;34221;45.296;9.516;2022-12-11T01:04:28;2.60;99.90
47813;DHT22;34221;45.296;9.516;2022-12-11T01:04:43;2.60;99.90
47813;DHT22;34221;45.296;9.516;2022-12-11T01:04:57;2.60;99.90
47813;DHT22;34221;45.296;9.516;2022-12-11T01:05:12;2.50;99.90
47813;DHT22;34221;45.296;9.516;2022-12-11T01:05:27;2.50;99.90
47813;DHT22;34221;45.296;9.516;2022-12-11T01:05:53;2.50;99.90
47813;DHT22;34221;45.296;9.516;2022-12-11T01:06:12;2.60;99.90
47813;DHT22;34221;45.296;9.516;2022-12-11T01:06:31;2.60;99.90
47813;DHT22;34221;45.296;9.516;2022-12-11T01:06:46;2.60;99.90
47813;DHT22;34221;45.296;9.516;2022-12-11T01:07:01;2.60;99.90
47813;DHT22;34221;45.296;9.516;2022-12-11T01:07:16;2.60;99.90
47813;DHT22;34221;45.296;9.516;2022-12-11T01:07:31;2.60;99.90
47813;DHT22;34221;45.296;9.516;2022-12-11T01:07:45;2.70;99.90
47813;DHT22;34221;45.296;9.516;2022-12-11T01:08:01;2.60;99.90
47813;DHT22;34221;45.296;9.516;2022-12-11T01:08:16;2.70;99.90
47813;DHT22;34221;45.296;9.516;2022-12-11T01:08:32;2.70;99.90
47813;DHT22;34221;45.296;9.516;2022-12-11T01:08:47;2.70;99.90
47813;DHT22;34221;45.296;9.516;2022-12-11T01:09:03;2.70;99.90
47813;DHT22;34221;45.296;9.516;2022-12-11T01:09:36;2.70;99.90
47813;DHT22;34221;45.296;9.516;2022-12-11T01:10:11;2.60;99.90
47813;DHT22;34221;45.296;9.516;2022-12-11T01:10:39;2.60;99.90
47813;DHT22;34221;45.296;9.516;2022-12-11T01:11:02;2.50;99.90
47813;DHT22;34221;45.296;9.516;2022-12-11T01:11:19;2.60;99.90
47813;DHT22;34221;45.296;9.516;2022-12-11T01:11:35;2.50;99.90
47813;DHT22;34221;45.296;9.516;2022-12-11T01:11:51;2.60;99.90
47813;DHT22;34221;45.296;9.516;2022-12-11T01:12:06;2.60;99.90
47813;DHT22;34221;45.296;9.516;2022-12-11T01:12:21;2.60;99.90
47813;DHT22;34221;45.296;9.516;2022-12-11T01:12:36;2.50;99.90
47813;DHT22;34221;45.296;9.516;2022-12-11T01:13:09;2.50;99.90
47813;DHT22;34221;45.296;9.516;2022-12-11T01:13:25;2.50;99.90
47813;DHT22;34221;45.296;9.516;2022-12-11T01:13:41;2.50;99.90
47813;DHT22;34221;45.296;9.516;2022-12-11T01:13:56;2.50;99.90
47813;DHT22;34221;45.296;9.516;2022-12-11T01:14:11;2.50;99.90
47813;DHT22;34221;45.296;9.516;2022-12-11T01:14:26;2.50;99.90
47813;DHT22;34221;45.296;9.516;2022-12-11T01:14:41;2.50;99.90
47813;DHT22;34221;45.296;9.516;2022-12-11T01:14:56;2.60;99.90
47813;DHT22;34221;45.296;9.516;2022-12-11T01:15:11;2.60;99.90
47813;DHT22;34221;45.296;9.516;2022-12-11T01:15:29;2.50;99.90
47813;DHT22;34221;45.296;9.516;2022-12-11T01:15:46;2.50;99.90
47813;DHT22;34221;45.296;9.516;2022-12-11T01:16:09;2.50;99.90
47813;DHT22;34221;45.296;9.516;2022-12-11T01:16:28;2.50;99.90
47813;DHT22;34221;45.296;9.516;2022-12-11T01:16:43;2.60;99.90
47813;DHT22;34221;45.296;9.516;2022-12-11T01:16:57;2.60;99.90
47813;DHT22;34221;45.296;9.516;2022-12-11T01:17:12;2.60;99.90
47813;DHT22;34221;45.296;9.516;2022-12-11T01:17:27;2.50;99.90
47813;DHT22;34221;45.296;9.516;2022-12-11T01:17:42;2.60;99.90
47813;DHT22;34221;45.296;9.516;2022-12-11T01:17:57;2.60;99.90
47813;DHT22;34221;45.296;9.516;2022-12-11T01:18:13;2.60;99.90
47813;DHT22;34221;45.296;9.516;2022-12-11T01:18:29;2.50;99.90
47813;DHT22;34221;45.296;9.516;2022-12-11T01:18:44;2.50;99.90
47813;DHT22;34221;45.296;9.516;2022-12-11T01:18:59;2.50;99.90
47813;DHT22;34221;45.296;9.516;2022-12-11T01:19:14;2.50;99.90
47813;DHT22;34221;45.296;9.516;2022-12-11T01:19:29;2.50;99.90
47813;DHT22;34221;45.296;9.516;2022-12-11T01:19:44;2.50;99.90
47813;DHT22;34221;45.296;9.516;2022-12-11T01:19:59;2.50;99.90
47813;DHT22;34221;45.296;9.516;2022-12-11T01:20:14;2.50;99.90
47813;DHT22;34221;45.296;9.516;2022-12-11T01:20:29;2.50;99.90
47813;DHT22;34221;45.296;9.516;2022-12-11T01:20:44;2.40;99.90
47813;DHT22;34221;45.296;9.516;2022-12-11T01:21:03;2.50;99.90
47813;DHT22;34221;45.296;9.516;2022-12-11T01:21:19;2.50;99.90
47813;DHT22;34221;45.296;9.516;2022-12-11T01:21:34;2.50;99.90
47813;DHT22;34221;45.296;9.516;2022-12-11T01:21:49;2.50;99.90
47813;DHT22;34221;45.296;9.516;2022-12-11T01:22:04;2.40;99.90
47813;DHT22;34221;45.296;9.516;2022-12-11T01:22:19;2.50;99.90
47813;DHT22;34221;45.296;9.516;2022-12-11T01:22:34;2.40;99.90
47813;DHT22;34221;45.296;9.516;2022-12-11T01:22:57;2.50;99.90
47813;DHT22;34221;45.296;9.516;2022-12-11T01:23:13;2.40;99.90
47813;DHT22;34221;45.296;9.516;2022-12-11T01:23:28;2.30;99.90
47813;DHT22;34221;45.296;9.516;2022-12-11T01:23:43;2.40;99.90
47813;DHT22;34221;45.296;9.516;2022-12-11T01:23:58;2.40;99.90
47813;DHT22;34221;45.296;9.516;2022-12-11T01:24:13;2.40;99.90
47813;DHT22;34221;45.296;9.516;2022-12-11T01:24:28;2.40;99.90
47813;DHT22;34221;45.296;9.516;2022-12-11T01:24:43;2.30;99.90
47813;DHT22;34221;45.296;9.516;2022-12-11T01:24:58;2.40;99.90
47813;DHT22;34221;45.296;9.516;2022-12-11T01:25:13;2.40;99.90
47813;DHT22;34221;45.296;9.516;2022-12-11T01:25:28;2.30;99.90
47813;DHT22;34221;45.296;9.516;2022-12-11T01:25:43;2.30;99.90
47813;DHT22;34221;45.296;9.516;2022-12-11T01:26:07;2.30;99.90
47813;DHT22;34221;45.296;9.516;2022-12-11T01:26:23;2.40;99.90
47813;DHT22;34221;45.296;9.516;2022-12-11T01:26:38;2.40;99.90
47813;DHT22;34221;45.296;9.516;2022-12-11T01:26:52;2.40;99.90
47813;DHT22;34221;45.296;9.516;2022-12-11T01:27:07;2.40;99.90
47813;DHT22;34221;45.296;9.516;2022-12-11T01:27:22;2.30;99.90
47813;DHT22;34221;45.296;9.516;2022-12-11T01:27:37;2.30;99.90
47813;DHT22;34221;45.296;9.516;2022-12-11T01:27:54;2.30;99.90
47813;DHT22;34221;45.296;9.516;2022-12-11T01:28:09;2.30;99.90
47813;DHT22;34221;45.296;9.516;2022-12-11T01:28:24;2.40;99.90
47813;DHT22;34221;45.296;9.516;2022-12-11T01:28:40;2.40;99.90
47813;DHT22;34221;45.296;9.516;2022-12-11T01:28:56;2.40;99.90
47813;DHT22;34221;45.296;9.516;2022-12-11T01:29:11;2.30;99.90
47813;DHT22;34221;45.296;9.516;2022-12-11T01:29:25;2.30;99.90
47813;DHT22;34221;45.296;9.516;2022-12-11T01:29:40;2.30;99.90
47813;DHT22;34221;45.296;9.516;2022-12-11T01:29:56;2.30;99.90
47813;DHT22;34221;45.296;9.516;2022-12-11T01:30:11;2.30;99.90
47813;DHT22;34221;45.296;9.516;2022-12-11T01:30:26;2.30;99.90
47813;DHT22;34221;45.296;9.516;2022-12-11T01:30:42;2.30;99.90
47813;DHT22;34221;45.296;9.516;2022-12-11T01:30:57;2.30;99.90
47813;DHT22;34221;45.296;9.516;2022-12-11T01:31:14;2.30;99.90
47813;DHT22;34221;45.296;9.516;2022-12-11T01:31:30;2.30;99.90
47813;DHT22;34221;45.296;9.516;2022-12-11T01:31:45;2.30;99.90
47813;DHT22;34221;45.296;9.516;2022-12-11T01:32:00;2.30;99.90
47813;DHT22;34221;45.296;9.516;2022-12-11T01:32:15;2.30;99.90
47813;DHT22;34221;45.296;9.516;2022-12-11T01:32:30;2.40;99.90
47813;DHT22;34221;45.296;9.516;2022-12-11T01:32:46;2.30;99.90
47813;DHT22;34221;45.296;9.516;2022-12-11T01:33:01;2.30;99.90
47813;DHT22;34221;45.296;9.516;2022-12-11T01:33:16;2.30;99.90
47813;DHT22;34221;45.296;9.516;2022-12-11T01:33:31;2.30;99.90
47813;DHT22;34221;45.296;9.516;2022-12-11T01:33:46;2.30;99.90
47813;DHT22;34221;45.296;9.516;2022-12-11T01:34:01;2.30;99.90
47813;DHT22;34221;45.296;9.516;2022-12-11T01:34:15;2.30;99.90
47813;DHT22;34221;45.296;9.516;2022-12-11T01:34:31;2.30;99.90
47813;DHT22;34221;45.296;9.516;2022-12-11T01:34:46;2.30;99.90
47813;DHT22;34221;45.296;9.516;2022-12-11T01:35:03;2.30;99.90
47813;DHT22;34221;45.296;9.516;2022-12-11T01:35:19;2.30;99.90
47813;DHT22;34221;45.296;9.516;2022-12-11T01:35:34;2.20;99.90
47813;DHT22;34221;45.296;9.516;2022-12-11T01:35:49;2.30;99.90
47813;DHT22;34221;45.296;9.516;2022-12-11T01:36:16;2.30;99.90
47813;DHT22;34221;45.296;9.516;2022-12-11T01:36:33;2.30;99.90
47813;DHT22;34221;45.296;9.516;2022-12-11T01:36:47;2.30;99.90
47813;DHT22;34221;45.296;9.516;2022-12-11T01:37:02;2.30;99.90
47813;DHT22;34221;45.296;9.516;2022-12-11T01:37:17;2.30;99.90
47813;DHT22;34221;45.296;9.516;2022-12-11T01:37:33;2.20;99.90
47813;DHT22;34221;45.296;9.516;2022-12-11T01:37:48;2.20;99.90
47813;DHT22;34221;45.296;9.516;2022-12-11T01:38:03;2.20;99.90
47813;DHT22;34221;45.296;9.516;2022-12-11T01:38:18;2.20;99.90
47813;DHT22;34221;45.296;9.516;2022-12-11T01:38:33;2.20;99.90
47813;DHT22;34221;45.296;9.516;2022-12-11T01:38:48;2.10;99.90
47813;DHT22;34221;45.296;9.516;2022-12-11T01:39:05;2.10;99.90
47813;DHT22;34221;45.296;9.516;2022-12-11T01:39:20;2.10;99.90
47813;DHT22;34221;45.296;9.516;2022-12-11T01:39:35;2.10;99.90
47813;DHT22;34221;45.296;9.516;2022-12-11T01:39:52;2.20;99.90
47813;DHT22;34221;45.296;9.516;2022-12-11T01:40:08;2.20;99.90
47813;DHT22;34221;45.296;9.516;2022-12-11T01:40:25;2.20;99.90
47813;DHT22;34221;45.296;9.516;2022-12-11T01:40:46;2.20;99.90
47813;DHT22;34221;45.296;9.516;2022-12-11T01:41:02;2.20;99.90
47813;DHT22;34221;45.296;9.516;2022-12-11T01:41:17;2.20;99.90